createdAt,value
2022-07-25T00:00:19.043Z,24.1
2022-07-25T00:01:25.150Z,24.2
2022-07-25T00:02:31.248Z,24.2
2022-07-25T00:03:37.359Z,24.2
2022-07-25T00:04:43.484Z,24.1
2022-07-25T00:05:49.599Z,24.1
2022-07-25T00:06:55.706Z,24.2
2022-07-25T00:08:00.849Z,24.2
2022-07-25T00:09:05.971Z,24.2
2022-07-25T00:10:11.107Z,24.2
2022-07-25T00:11:16.235Z,24.2
2022-07-25T00:12:22.347Z,24.2
2022-07-25T00:13:28.469Z,24.2
2022-07-25T00:14:34.579Z,24.2
2022-07-25T00:15:40.703Z,24.2
2022-07-25T00:16:46.802Z,24.2
2022-07-25T00:17:52.911Z,24.2
2022-07-25T00:18:59.045Z,24.2
2022-07-25T00:20:05.150Z,24.2
2022-07-25T00:21:11.255Z,24.2
2022-07-25T00:22:17.370Z,24.2
2022-07-25T00:23:23.484Z,24.2
2022-07-25T00:24:29.602Z,24.2
2022-07-25T00:25:34.731Z,24.2
2022-07-25T00:26:40.842Z,24.2
2022-07-25T00:27:46.967Z,24.2
2022-07-25T00:28:53.075Z,24.2
2022-07-25T00:29:59.185Z,24.2
2022-07-25T00:31:05.371Z,24.2
2022-07-25T00:32:11.412Z,24.2
2022-07-25T00:33:16.551Z,24.2
2022-07-25T00:34:21.674Z,24.2
2022-07-25T00:35:26.808Z,24.2
2022-07-25T00:36:31.949Z,24.2
2022-07-25T00:37:38.109Z,24.2
2022-07-25T00:38:44.166Z,24.2
2022-07-25T00:39:50.290Z,24.2
2022-07-25T00:40:56.433Z,24.2
2022-07-25T00:42:02.595Z,24.2
2022-07-25T00:43:08.621Z,24.2
2022-07-25T00:44:14.743Z,24.2
2022-07-25T00:45:20.874Z,24.2
2022-07-25T00:46:26.968Z,24.2
2022-07-25T00:47:33.127Z,24.2
2022-07-25T00:48:39.309Z,24.2
2022-07-25T00:49:45.309Z,24.2
2022-07-25T00:50:50.435Z,24.2
2022-07-25T00:51:56.556Z,24.2
2022-07-25T00:53:02.716Z,24.2
2022-07-25T00:54:08.783Z,24.2
2022-07-25T00:55:14.899Z,24.2
2022-07-25T00:56:21.026Z,24.2
2022-07-25T00:57:27.151Z,24.2
2022-07-25T00:58:32.377Z,24.2
2022-07-25T00:59:37.380Z,24.2
2022-07-25T01:00:42.522Z,24.2
2022-07-25T01:01:47.652Z,24.2
2022-07-25T01:02:53.781Z,24.3
2022-07-25T01:03:59.893Z,24.2
2022-07-25T01:05:05.997Z,24.3
2022-07-25T01:06:12.103Z,24.3
2022-07-25T01:07:18.230Z,24.2
2022-07-25T01:08:24.349Z,24.3
2022-07-25T01:09:30.518Z,24.2
2022-07-25T01:10:36.565Z,24.2
2022-07-25T01:11:42.674Z,24.3
2022-07-25T01:12:48.792Z,24.3
2022-07-25T01:13:54.897Z,24.3
2022-07-25T01:15:01.016Z,24.3
2022-07-25T01:16:06.277Z,24.3
2022-07-25T01:17:12.264Z,24.2
2022-07-25T01:18:18.372Z,24.3
2022-07-25T01:19:24.498Z,24.3
2022-07-25T01:20:30.601Z,24.3
2022-07-25T01:21:36.717Z,24.3
2022-07-25T01:22:42.842Z,24.3
2022-07-25T01:23:47.984Z,24.3
2022-07-25T01:24:53.104Z,24.3
2022-07-25T01:25:59.210Z,24.3
2022-07-25T01:27:05.324Z,24.3
2022-07-25T01:28:11.438Z,24.3
2022-07-25T01:29:17.554Z,24.3
2022-07-25T01:30:23.662Z,24.3
2022-07-25T01:31:29.800Z,24.3
2022-07-25T01:32:35.891Z,24.3
2022-07-25T01:33:42.006Z,24.3
2022-07-25T01:34:48.123Z,24.3
2022-07-25T01:35:54.235Z,24.3
2022-07-25T01:37:00.342Z,24.3
2022-07-25T01:38:06.459Z,24.3
2022-07-25T01:39:11.594Z,24.3
2022-07-25T01:40:17.708Z,24.3
2022-07-25T01:41:23.813Z,24.3
2022-07-25T01:42:29.932Z,24.3
2022-07-25T01:43:36.043Z,24.3
2022-07-25T01:44:42.157Z,24.3
2022-07-25T01:45:48.281Z,24.3
2022-07-25T01:46:53.413Z,24.3
2022-07-25T01:47:58.534Z,24.3
2022-07-25T01:49:03.672Z,24.3
2022-07-25T01:50:08.802Z,24.3
2022-07-25T01:51:14.914Z,24.3
2022-07-25T01:52:20.054Z,24.3
2022-07-25T01:53:25.184Z,24.3
2022-07-25T01:54:31.294Z,24.3
2022-07-25T01:55:37.411Z,24.3
2022-07-25T01:56:43.525Z,24.3
2022-07-25T01:57:49.638Z,24.3
2022-07-25T01:58:55.749Z,24.3
2022-07-25T02:00:01.864Z,24.3
2022-07-25T02:01:07.986Z,24.3
2022-07-25T02:02:14.093Z,24.3
2022-07-25T02:03:20.206Z,24.3
2022-07-25T02:04:26.321Z,24.3
2022-07-25T02:05:32.430Z,24.3
2022-07-25T02:06:38.545Z,24.3
2022-07-25T02:07:43.688Z,24.3
2022-07-25T02:08:49.796Z,24.3
2022-07-25T02:09:55.905Z,24.3
2022-07-25T02:11:02.017Z,24.3
2022-07-25T02:12:08.141Z,24.3
2022-07-25T02:13:14.247Z,24.3
2022-07-25T02:14:20.369Z,24.3
2022-07-25T02:15:25.512Z,24.3
2022-07-25T02:16:30.627Z,24.3
2022-07-25T02:17:36.741Z,24.3
2022-07-25T02:18:42.856Z,24.3
2022-07-25T02:19:48.966Z,24.3
2022-07-25T02:20:55.078Z,24.3
2022-07-25T02:22:01.194Z,24.3
2022-07-25T02:23:07.310Z,24.3
2022-07-25T02:24:13.421Z,24.3
2022-07-25T02:25:19.538Z,24.3
2022-07-25T02:26:25.647Z,24.3
2022-07-25T02:27:31.763Z,24.3
2022-07-25T02:28:37.877Z,24.3
2022-07-25T02:29:43.991Z,24.3
2022-07-25T02:30:49.123Z,24.3
2022-07-25T02:31:55.249Z,24.3
2022-07-25T02:33:01.353Z,24.3
2022-07-25T02:34:07.466Z,24.3
2022-07-25T02:35:13.578Z,24.3
2022-07-25T02:36:19.700Z,24.3
2022-07-25T02:37:25.821Z,24.3
2022-07-25T02:38:30.951Z,24.3
2022-07-25T02:39:36.070Z,24.3
2022-07-25T02:40:42.178Z,24.3
2022-07-25T02:41:48.291Z,24.3
2022-07-25T02:42:54.408Z,24.3
2022-07-25T02:44:00.528Z,24.3
2022-07-25T02:45:06.648Z,24.3
2022-07-25T02:46:12.758Z,24.3
2022-07-25T02:47:18.893Z,24.4
2022-07-25T02:48:25.004Z,24.3
2022-07-25T02:49:31.094Z,24.4
2022-07-25T02:50:37.218Z,24.3
2022-07-25T02:51:43.311Z,24.3
2022-07-25T02:52:49.429Z,24.3
2022-07-25T02:53:54.567Z,24.4
2022-07-25T02:55:00.678Z,24.4
2022-07-25T02:56:06.796Z,24.3
2022-07-25T02:57:12.927Z,24.4
2022-07-25T02:58:19.032Z,24.4
2022-07-25T02:59:25.131Z,24.4
2022-07-25T03:00:31.254Z,24.3
2022-07-25T03:01:36.389Z,24.4
2022-07-25T03:02:41.514Z,24.4
2022-07-25T03:03:46.648Z,24.4
2022-07-25T03:04:51.782Z,24.4
2022-07-25T03:05:56.907Z,24.4
2022-07-25T03:07:02.043Z,24.4
2022-07-25T03:08:08.157Z,24.4
2022-07-25T03:09:14.270Z,24.4
2022-07-25T03:10:20.388Z,24.4
2022-07-25T03:11:26.495Z,24.4
2022-07-25T03:12:32.608Z,24.4
2022-07-25T03:13:38.726Z,24.4
2022-07-25T03:14:44.848Z,24.4
2022-07-25T03:15:50.959Z,24.4
2022-07-25T03:16:57.077Z,24.4
2022-07-25T03:18:03.177Z,24.4
2022-07-25T03:19:09.290Z,24.4
2022-07-25T03:20:15.425Z,24.4
2022-07-25T03:21:20.543Z,24.4
2022-07-25T03:22:26.654Z,24.4
2022-07-25T03:23:32.763Z,24.4
2022-07-25T03:24:38.880Z,24.4
2022-07-25T03:25:45.003Z,24.4
2022-07-25T03:26:50.129Z,24.4
2022-07-25T03:27:56.241Z,24.4
2022-07-25T03:29:01.385Z,24.4
2022-07-25T03:30:06.514Z,24.4
2022-07-25T03:31:11.662Z,24.4
2022-07-25T03:32:16.768Z,24.4
2022-07-25T03:33:22.894Z,24.4
2022-07-25T03:34:29.002Z,24.4
2022-07-25T03:35:35.124Z,24.4
2022-07-25T03:36:41.232Z,24.4
2022-07-25T03:37:47.349Z,24.4
2022-07-25T03:38:53.463Z,24.4
2022-07-25T03:39:59.587Z,24.4
2022-07-25T03:41:05.691Z,24.4
2022-07-25T03:42:11.800Z,24.4
2022-07-25T03:43:17.924Z,24.4
2022-07-25T03:44:24.023Z,24.4
2022-07-25T03:45:30.168Z,24.4
2022-07-25T03:46:35.266Z,24.4
2022-07-25T03:47:41.377Z,24.4
2022-07-25T03:48:47.489Z,24.4
2022-07-25T03:49:53.607Z,24.4
2022-07-25T03:50:59.744Z,24.4
2022-07-25T03:52:05.832Z,24.4
2022-07-25T03:53:11.948Z,24.4
2022-07-25T03:54:17.097Z,24.4
2022-07-25T03:55:22.218Z,24.4
2022-07-25T03:56:28.333Z,24.4
2022-07-25T03:57:33.469Z,24.4
2022-07-25T03:58:38.600Z,24.4
2022-07-25T03:59:44.707Z,24.4
2022-07-25T04:00:50.829Z,24.4
2022-07-25T04:01:56.929Z,24.4
2022-07-25T04:03:03.050Z,24.4
2022-07-25T04:04:09.170Z,24.4
2022-07-25T04:05:15.277Z,24.4
2022-07-25T04:06:21.398Z,24.4
2022-07-25T04:07:27.502Z,24.4
2022-07-25T04:08:33.618Z,24.4
2022-07-25T04:09:39.728Z,24.4
2022-07-25T04:10:45.848Z,24.4
2022-07-25T04:11:51.976Z,24.4
2022-07-25T04:12:57.094Z,24.4
2022-07-25T04:14:03.207Z,24.4
2022-07-25T04:15:09.321Z,24.4
2022-07-25T04:16:15.444Z,24.4
2022-07-25T04:17:21.543Z,24.4
2022-07-25T04:18:27.668Z,24.4
2022-07-25T04:19:33.781Z,24.4
2022-07-25T04:20:38.915Z,24.4
2022-07-25T04:21:44.050Z,24.4
2022-07-25T04:22:50.149Z,24.4
2022-07-25T04:23:56.272Z,24.4
2022-07-25T04:25:02.387Z,24.4
2022-07-25T04:26:08.494Z,24.4
2022-07-25T04:27:14.622Z,24.4
2022-07-25T04:28:20.722Z,24.4
2022-07-25T04:29:26.839Z,24.4
2022-07-25T04:30:32.954Z,24.4
2022-07-25T04:31:39.069Z,24.4
2022-07-25T04:32:45.177Z,24.4
2022-07-25T04:33:51.306Z,24.4
2022-07-25T04:34:57.410Z,24.4
2022-07-25T04:36:02.533Z,24.4
2022-07-25T04:37:08.653Z,24.4
2022-07-25T04:38:14.772Z,24.4
2022-07-25T04:39:20.872Z,24.4
2022-07-25T04:40:26.995Z,24.4
2022-07-25T04:41:33.107Z,24.4
2022-07-25T04:42:39.228Z,24.4
2022-07-25T04:43:44.361Z,24.4
2022-07-25T04:44:49.489Z,24.4
2022-07-25T04:45:55.592Z,24.4
2022-07-25T04:47:01.713Z,24.4
2022-07-25T04:48:07.832Z,24.4
2022-07-25T04:49:13.945Z,24.4
2022-07-25T04:50:20.073Z,24.4
2022-07-25T04:51:26.173Z,24.4
2022-07-25T04:52:32.280Z,24.4
2022-07-25T04:53:38.392Z,24.4
2022-07-25T04:54:44.506Z,24.4
2022-07-25T04:55:50.628Z,24.4
2022-07-25T04:56:56.736Z,24.4
2022-07-25T04:58:02.851Z,24.4
2022-07-25T04:59:07.980Z,24.4
2022-07-25T05:00:14.098Z,24.4
2022-07-25T05:01:20.219Z,24.4
2022-07-25T05:02:26.322Z,24.4
2022-07-25T05:03:32.440Z,24.4
2022-07-25T05:04:38.552Z,24.4
2022-07-25T05:05:44.670Z,24.4
2022-07-25T05:06:49.804Z,24.4
2022-07-25T05:07:54.930Z,24.4
2022-07-25T05:09:00.078Z,24.4
2022-07-25T05:10:05.192Z,24.4
2022-07-25T05:11:11.311Z,24.4
2022-07-25T05:12:17.422Z,24.4
2022-07-25T05:13:23.540Z,24.4
2022-07-25T05:14:29.650Z,24.4
2022-07-25T05:15:35.760Z,24.4
2022-07-25T05:16:41.880Z,24.4
2022-07-25T05:17:47.995Z,24.4
2022-07-25T05:18:54.111Z,24.4
2022-07-25T05:20:00.220Z,24.4
2022-07-25T05:21:06.350Z,24.4
2022-07-25T05:22:12.444Z,24.4
2022-07-25T05:24:24.671Z,24.4
2022-07-25T05:25:29.807Z,24.4
2022-07-25T05:26:35.923Z,24.4
2022-07-25T05:27:42.043Z,24.4
2022-07-25T05:28:48.151Z,24.4
2022-07-25T05:29:54.266Z,24.4
2022-07-25T05:31:00.369Z,24.4
2022-07-25T05:32:06.496Z,24.4
2022-07-25T05:33:11.628Z,24.4
2022-07-25T05:34:16.758Z,24.4
2022-07-25T05:35:21.884Z,24.4
2022-07-25T05:36:27.012Z,24.4
2022-07-25T05:37:33.134Z,24.4
2022-07-25T05:38:39.257Z,24.4
2022-07-25T05:39:45.366Z,24.4
2022-07-25T05:40:51.485Z,24.4
2022-07-25T05:41:57.586Z,24.4
2022-07-25T05:43:03.697Z,24.4
2022-07-25T05:44:09.815Z,24.4
2022-07-25T05:45:15.958Z,24.4
2022-07-25T05:46:22.055Z,24.4
2022-07-25T05:47:28.164Z,24.4
2022-07-25T05:48:34.273Z,24.4
2022-07-25T05:49:40.378Z,24.4
2022-07-25T05:50:45.515Z,24.4
2022-07-25T05:51:51.634Z,24.4
2022-07-25T05:52:57.745Z,24.4
2022-07-25T05:54:03.857Z,24.4
2022-07-25T05:55:09.967Z,24.4
2022-07-25T05:56:16.090Z,24.4
2022-07-25T05:57:22.197Z,24.4
2022-07-25T05:58:27.343Z,24.4
2022-07-25T05:59:32.468Z,24.4
2022-07-25T06:00:38.576Z,24.4
2022-07-25T06:01:44.693Z,24.4
2022-07-25T06:02:49.837Z,24.4
2022-07-25T06:03:54.956Z,24.4
2022-07-25T06:05:01.078Z,24.4
2022-07-25T06:06:07.185Z,24.4
2022-07-25T06:07:13.305Z,24.4
2022-07-25T06:08:19.412Z,24.4
2022-07-25T06:09:25.537Z,24.4
2022-07-25T06:10:31.640Z,24.4
2022-07-25T06:11:37.768Z,24.4
2022-07-25T06:12:43.875Z,24.4
2022-07-25T06:13:49.983Z,24.4
2022-07-25T06:14:56.089Z,24.4
2022-07-25T06:16:02.218Z,24.4
2022-07-25T06:17:08.327Z,24.4
2022-07-25T06:18:13.458Z,24.4
2022-07-25T06:19:19.587Z,24.4
2022-07-25T06:20:25.677Z,24.4
2022-07-25T06:21:31.793Z,24.4
2022-07-25T06:22:37.908Z,24.4
2022-07-25T06:23:44.027Z,24.4
2022-07-25T06:24:50.141Z,24.4
2022-07-25T06:25:55.276Z,24.4
2022-07-25T06:27:00.404Z,24.4
2022-07-25T06:28:06.518Z,24.4
2022-07-25T06:29:11.652Z,24.4
2022-07-25T06:30:16.783Z,24.4
2022-07-25T06:31:22.892Z,24.4
2022-07-25T06:32:29.006Z,24.4
2022-07-25T06:33:35.130Z,24.4
2022-07-25T06:34:41.233Z,24.4
2022-07-25T06:35:47.359Z,24.4
2022-07-25T06:36:53.473Z,24.4
2022-07-25T06:37:59.580Z,24.4
2022-07-25T06:39:05.688Z,24.4
2022-07-25T06:40:11.800Z,24.4
2022-07-25T06:41:17.919Z,24.4
2022-07-25T06:42:24.037Z,24.4
2022-07-25T06:43:30.161Z,24.4
2022-07-25T06:44:35.278Z,24.4
2022-07-25T06:45:41.391Z,24.4
2022-07-25T06:46:47.503Z,24.4
2022-07-25T06:47:53.619Z,24.4
2022-07-25T06:48:59.723Z,24.4
2022-07-25T06:50:05.849Z,24.4
2022-07-25T06:51:11.966Z,24.4
2022-07-25T06:52:17.099Z,24.4
2022-07-25T06:53:22.219Z,24.4
2022-07-25T06:54:28.344Z,24.4
2022-07-25T06:55:34.456Z,24.4
2022-07-25T06:56:39.590Z,24.4
2022-07-25T06:57:44.720Z,24.4
2022-07-25T06:58:50.845Z,24.4
2022-07-25T06:59:56.955Z,24.4
2022-07-25T07:01:03.069Z,24.4
2022-07-25T07:02:09.170Z,24.4
2022-07-25T07:03:15.288Z,24.4
2022-07-25T07:04:21.410Z,24.4
2022-07-25T07:05:27.515Z,24.4
2022-07-25T07:06:33.629Z,24.4
2022-07-25T07:07:38.768Z,24.4
2022-07-25T07:08:44.917Z,24.4
2022-07-25T07:09:50.996Z,24.4
2022-07-25T07:10:57.106Z,24.4
2022-07-25T07:12:03.222Z,24.4
2022-07-25T07:13:09.341Z,24.4
2022-07-25T07:14:15.441Z,24.4
2022-07-25T07:15:21.563Z,24.4
2022-07-25T07:16:27.675Z,24.4
2022-07-25T07:17:33.826Z,24.4
2022-07-25T07:18:39.899Z,24.4
2022-07-25T07:19:45.043Z,24.4
2022-07-25T07:20:50.175Z,24.4
2022-07-25T07:21:56.282Z,24.4
2022-07-25T07:23:02.401Z,24.4
2022-07-25T07:24:08.516Z,24.4
2022-07-25T07:25:14.638Z,24.4
2022-07-25T07:26:20.741Z,24.4
2022-07-25T07:27:26.849Z,24.4
2022-07-25T07:28:32.959Z,24.4
2022-07-25T07:29:39.080Z,24.4
2022-07-25T07:30:45.189Z,24.4
2022-07-25T07:31:51.304Z,24.4
2022-07-25T07:32:57.429Z,24.4
2022-07-25T07:34:03.535Z,24.4
2022-07-25T07:35:08.666Z,24.4
2022-07-25T07:36:14.781Z,24.4
2022-07-25T07:37:20.887Z,24.4
2022-07-25T07:38:27.012Z,24.4
2022-07-25T07:39:33.170Z,24.4
2022-07-25T07:40:39.233Z,24.4
2022-07-25T07:41:45.351Z,24.4
2022-07-25T07:42:50.477Z,24.4
2022-07-25T07:43:55.619Z,24.4
2022-07-25T07:45:01.727Z,24.4
2022-07-25T07:46:07.833Z,24.4
2022-07-25T07:47:13.962Z,24.4
2022-07-25T07:48:20.060Z,24.4
2022-07-25T07:49:26.204Z,24.4
2022-07-25T07:50:32.293Z,24.4
2022-07-25T07:51:38.402Z,24.4
2022-07-25T07:52:44.520Z,24.4
2022-07-25T07:53:50.638Z,24.4
2022-07-25T07:54:56.761Z,24.4
2022-07-25T07:56:02.871Z,24.4
2022-07-25T07:57:08.988Z,24.4
2022-07-25T07:58:14.121Z,24.4
2022-07-25T07:59:20.235Z,24.4
2022-07-25T08:00:26.339Z,24.4
2022-07-25T08:01:32.458Z,24.4
2022-07-25T08:02:38.566Z,24.4
2022-07-25T08:03:44.686Z,24.4
2022-07-25T08:04:50.807Z,24.4
2022-07-25T08:05:55.929Z,24.4
2022-07-25T08:07:01.078Z,24.4
2022-07-25T08:08:06.203Z,24.4
2022-07-25T08:09:11.335Z,24.4
2022-07-25T08:10:17.442Z,24.4
2022-07-25T08:11:23.566Z,24.4
2022-07-25T08:13:35.782Z,24.4
2022-07-25T08:14:41.905Z,24.4
2022-07-25T08:15:48.020Z,24.4
2022-07-25T08:16:54.122Z,24.4
2022-07-25T08:18:00.231Z,24.4
2022-07-25T08:19:06.359Z,24.4
2022-07-25T08:20:12.468Z,24.4
2022-07-25T08:21:18.587Z,24.4
2022-07-25T08:22:24.701Z,24.4
2022-07-25T08:24:35.946Z,24.4
2022-07-25T08:25:41.072Z,24.4
2022-07-25T08:26:46.194Z,24.4
2022-07-25T08:28:58.435Z,24.4
2022-07-25T08:30:04.542Z,24.4
2022-07-25T08:31:10.659Z,24.4
2022-07-25T08:32:16.769Z,24.4
2022-07-25T08:33:22.893Z,24.4
2022-07-25T08:34:28.998Z,24.4
2022-07-25T08:35:35.116Z,24.4
2022-07-25T08:36:41.230Z,24.4
2022-07-25T08:37:47.347Z,24.4
2022-07-25T08:38:53.448Z,24.4
2022-07-25T08:39:59.568Z,24.4
2022-07-25T08:41:04.703Z,24.4
2022-07-25T08:42:10.817Z,24.4
2022-07-25T08:43:16.926Z,24.4
2022-07-25T08:44:23.040Z,24.4
2022-07-25T08:45:29.149Z,24.4
2022-07-25T08:46:35.267Z,24.4
2022-07-25T08:47:41.396Z,24.4
2022-07-25T08:48:47.509Z,24.4
2022-07-25T08:49:52.643Z,24.4
2022-07-25T08:50:57.763Z,24.4
2022-07-25T08:52:02.903Z,24.4
2022-07-25T08:53:08.029Z,24.4
2022-07-25T08:54:13.168Z,24.4
2022-07-25T08:55:18.300Z,24.4
2022-07-25T08:56:24.400Z,24.4
2022-07-25T08:57:29.549Z,24.4
2022-07-25T08:58:34.678Z,24.4
2022-07-25T08:59:40.771Z,24.4
2022-07-25T09:00:46.897Z,24.4
2022-07-25T09:01:53.011Z,24.4
2022-07-25T09:02:59.127Z,24.4
2022-07-25T09:04:05.249Z,24.4
2022-07-25T09:05:11.361Z,24.4
2022-07-25T09:06:17.473Z,24.4
2022-07-25T09:07:23.586Z,24.4
2022-07-25T09:08:29.688Z,24.4
2022-07-25T09:09:35.803Z,24.4
2022-07-25T09:11:48.028Z,24.4
2022-07-25T09:12:53.165Z,24.4
2022-07-25T09:13:59.279Z,24.4
2022-07-25T09:15:05.392Z,24.4
2022-07-25T09:16:11.502Z,24.4
2022-07-25T09:17:17.621Z,24.4
2022-07-25T09:18:23.733Z,24.4
2022-07-25T09:19:29.854Z,24.4
2022-07-25T09:20:35.968Z,24.4
2022-07-25T09:21:41.105Z,24.4
2022-07-25T09:22:46.240Z,24.4
2022-07-25T09:23:51.394Z,24.4
2022-07-25T09:24:56.495Z,24.4
2022-07-25T09:26:02.600Z,24.4
2022-07-25T09:27:08.721Z,24.4
2022-07-25T09:28:14.841Z,24.4
2022-07-25T09:29:20.960Z,24.4
2022-07-25T09:30:27.066Z,24.4
2022-07-25T09:31:33.174Z,24.4
2022-07-25T09:32:39.293Z,24.4
2022-07-25T09:33:45.406Z,24.4
2022-07-25T09:34:51.512Z,24.4
2022-07-25T09:35:57.627Z,24.4
2022-07-25T09:37:03.745Z,24.4
2022-07-25T09:38:09.853Z,24.4
2022-07-25T09:39:14.980Z,24.4
2022-07-25T09:40:21.111Z,24.4
2022-07-25T09:41:27.212Z,24.4
2022-07-25T09:42:33.341Z,24.4
2022-07-25T09:43:39.450Z,24.4
2022-07-25T09:44:45.549Z,24.4
2022-07-25T09:45:51.662Z,24.4
2022-07-25T09:46:56.809Z,24.4
2022-07-25T09:48:01.927Z,24.4
2022-07-25T09:49:07.074Z,24.4
2022-07-25T09:50:12.204Z,24.4
2022-07-25T09:51:18.315Z,24.4
2022-07-25T09:52:24.434Z,24.4
2022-07-25T09:53:30.543Z,24.4
2022-07-25T09:54:36.661Z,24.4
2022-07-25T09:55:42.773Z,24.4
2022-07-25T09:56:48.890Z,24.4
2022-07-25T09:57:55.010Z,24.4
2022-07-25T09:59:01.104Z,24.4
2022-07-25T10:00:07.246Z,24.4
2022-07-25T10:01:13.338Z,24.4
2022-07-25T10:02:19.475Z,24.4
2022-07-25T10:03:25.570Z,24.4
2022-07-25T10:04:30.691Z,24.4
2022-07-25T10:05:36.799Z,24.4
2022-07-25T10:06:42.927Z,24.4
2022-07-25T10:07:49.037Z,24.4
2022-07-25T10:08:55.153Z,24.4
2022-07-25T10:10:01.262Z,24.4
2022-07-25T10:11:07.389Z,24.4
2022-07-25T10:12:12.515Z,24.4
2022-07-25T10:13:17.645Z,24.4
2022-07-25T10:14:23.759Z,24.4
2022-07-25T10:15:29.868Z,24.4
2022-07-25T10:16:35.996Z,24.4
2022-07-25T10:17:42.094Z,24.4
2022-07-25T10:18:48.207Z,24.4
2022-07-25T10:19:54.326Z,24.4
2022-07-25T10:21:00.436Z,24.4
2022-07-25T10:22:06.544Z,24.4
2022-07-25T10:23:12.665Z,24.4
2022-07-25T10:24:18.782Z,24.4
2022-07-25T10:25:24.900Z,24.4
2022-07-25T10:26:31.007Z,24.4
2022-07-25T10:27:36.148Z,24.4
2022-07-25T10:28:42.275Z,24.4
2022-07-25T10:29:48.355Z,24.4
2022-07-25T10:30:54.481Z,24.4
2022-07-25T10:32:00.584Z,24.4
2022-07-25T10:33:06.703Z,24.4
2022-07-25T10:34:12.828Z,24.4
2022-07-25T10:35:17.963Z,24.4
2022-07-25T10:36:23.086Z,24.4
2022-07-25T10:38:34.330Z,24.4
2022-07-25T10:39:39.478Z,24.4
2022-07-25T10:40:44.605Z,24.4
2022-07-25T10:41:49.739Z,24.4
2022-07-25T10:42:54.876Z,24.4
2022-07-25T10:44:00.991Z,24.4
2022-07-25T10:45:07.102Z,24.4
2022-07-25T10:46:13.220Z,24.4
2022-07-25T10:47:19.325Z,24.4
2022-07-25T10:48:24.461Z,24.5
2022-07-25T10:49:30.576Z,24.5
2022-07-25T10:50:36.688Z,24.5
2022-07-25T10:51:42.798Z,24.5
2022-07-25T10:52:48.918Z,24.5
2022-07-25T10:53:55.028Z,24.6
2022-07-25T10:55:01.146Z,24.6
2022-07-25T10:56:07.262Z,24.6
2022-07-25T10:57:13.373Z,24.6
2022-07-25T10:58:19.492Z,24.6
2022-07-25T10:59:25.604Z,24.6
2022-07-25T11:00:31.739Z,24.6
2022-07-25T11:01:37.828Z,24.6
2022-07-25T11:02:42.971Z,24.6
2022-07-25T11:03:49.074Z,24.6
2022-07-25T11:04:54.215Z,24.6
2022-07-25T11:05:59.338Z,24.7
2022-07-25T11:07:05.449Z,24.6
2022-07-25T11:08:11.576Z,24.6
2022-07-25T11:09:17.679Z,24.7
2022-07-25T11:10:23.796Z,24.7
2022-07-25T11:11:29.910Z,24.7
2022-07-25T11:12:36.015Z,24.7
2022-07-25T11:13:42.138Z,24.7
2022-07-25T11:14:48.250Z,24.7
2022-07-25T11:15:54.368Z,24.7
2022-07-25T11:17:00.476Z,24.7
2022-07-25T11:18:06.587Z,24.7
2022-07-25T11:19:12.713Z,24.7
2022-07-25T11:20:17.835Z,24.7
2022-07-25T11:21:23.946Z,24.7
2022-07-25T11:22:30.071Z,24.7
2022-07-25T11:23:36.176Z,24.7
2022-07-25T11:24:42.321Z,24.7
2022-07-25T11:25:48.407Z,24.7
2022-07-25T11:26:54.520Z,24.7
2022-07-25T11:27:59.651Z,24.7
2022-07-25T11:29:04.776Z,24.7
2022-07-25T11:30:09.915Z,24.7
2022-07-25T11:31:15.050Z,24.7
2022-07-25T11:32:21.151Z,24.8
2022-07-25T11:33:27.283Z,24.8
2022-07-25T11:34:33.398Z,24.8
2022-07-25T11:35:39.505Z,24.8
2022-07-25T11:36:45.619Z,24.8
2022-07-25T11:37:51.735Z,24.8
2022-07-25T11:38:57.851Z,24.8
2022-07-25T11:40:03.970Z,24.8
2022-07-25T11:41:10.075Z,24.8
2022-07-25T11:42:16.204Z,24.9
2022-07-25T11:43:22.301Z,24.9
2022-07-25T11:44:28.413Z,24.9
2022-07-25T11:45:33.555Z,24.9
2022-07-25T11:46:39.666Z,24.9
2022-07-25T11:47:45.782Z,24.9
2022-07-25T11:48:51.896Z,24.9
2022-07-25T11:49:58.007Z,24.9
2022-07-25T11:51:04.113Z,24.9
2022-07-25T11:52:10.238Z,24.9
2022-07-25T11:53:15.376Z,24.9
2022-07-25T11:54:20.499Z,24.9
2022-07-25T11:55:26.604Z,24.9
2022-07-25T11:56:32.715Z,24.9
2022-07-25T11:57:38.840Z,24.9
2022-07-25T11:58:44.949Z,24.9
2022-07-25T11:59:51.082Z,24.9
2022-07-25T12:00:57.177Z,24.9
2022-07-25T12:03:09.423Z,24.9
2022-07-25T12:04:15.524Z,24.9
2022-07-25T12:05:21.633Z,24.9
2022-07-25T12:06:27.754Z,24.9
2022-07-25T12:07:33.868Z,24.9
2022-07-25T12:08:38.991Z,24.9
2022-07-25T12:09:45.103Z,24.9
2022-07-25T12:10:51.225Z,24.9
2022-07-25T12:11:57.334Z,24.9
2022-07-25T12:13:03.454Z,24.9
2022-07-25T12:14:09.558Z,24.9
2022-07-25T12:15:15.675Z,24.9
2022-07-25T12:16:21.788Z,24.9
2022-07-25T12:17:26.929Z,24.9
2022-07-25T12:18:32.060Z,24.9
2022-07-25T12:19:38.168Z,24.9
2022-07-25T12:21:50.393Z,24.9
2022-07-25T12:22:56.511Z,25
2022-07-25T12:24:02.628Z,25
2022-07-25T12:25:08.748Z,25
2022-07-25T12:26:14.857Z,25
2022-07-25T12:27:20.965Z,25
2022-07-25T12:28:27.085Z,25
2022-07-25T12:29:33.193Z,25
2022-07-25T12:30:39.300Z,25
2022-07-25T12:31:45.426Z,25
2022-07-25T12:32:50.556Z,25
2022-07-25T12:33:56.670Z,25
2022-07-25T12:35:02.790Z,25
2022-07-25T12:36:08.896Z,25
2022-07-25T12:37:15.003Z,25
2022-07-25T12:38:21.129Z,25
2022-07-25T12:39:27.241Z,25
2022-07-25T12:40:33.347Z,25
2022-07-25T12:41:38.491Z,25
2022-07-25T12:42:43.617Z,25
2022-07-25T12:43:48.762Z,25
2022-07-25T12:44:53.879Z,24.9
2022-07-25T12:47:05.136Z,24.9
2022-07-25T12:49:16.384Z,25
2022-07-25T12:50:21.537Z,25
2022-07-25T12:52:32.761Z,25
2022-07-25T12:53:38.887Z,25
2022-07-25T12:54:44.987Z,25
2022-07-25T12:55:51.105Z,25
2022-07-25T12:58:03.324Z,25
2022-07-25T12:59:09.445Z,25
2022-07-25T13:00:15.560Z,25
2022-07-25T13:01:21.676Z,25
2022-07-25T13:02:27.780Z,25
2022-07-25T13:03:33.896Z,25.1
2022-07-25T13:04:40.006Z,25.1
2022-07-25T13:05:45.157Z,25.1
2022-07-25T13:06:51.255Z,25.1
2022-07-25T13:07:57.367Z,25.1
2022-07-25T13:09:03.474Z,25.1
2022-07-25T13:10:09.601Z,25.1
2022-07-25T13:12:21.830Z,25.1
2022-07-25T13:13:26.980Z,25.1
2022-07-25T13:14:32.102Z,25.1
2022-07-25T13:15:38.205Z,25.1
2022-07-25T13:16:44.321Z,25.1
2022-07-25T13:17:50.429Z,25.1
2022-07-25T13:18:56.540Z,25.1
2022-07-25T13:20:02.652Z,25.1
2022-07-25T13:21:08.767Z,25.1
2022-07-25T13:22:14.888Z,25.1
2022-07-25T13:23:20.989Z,25.1
2022-07-25T13:24:27.103Z,25.1
2022-07-25T13:25:32.250Z,25.1
2022-07-25T13:26:37.373Z,25.1
2022-07-25T13:27:43.497Z,25.1
2022-07-25T13:28:49.604Z,25.2
2022-07-25T13:29:55.716Z,25.2
2022-07-25T13:31:01.832Z,25.2
2022-07-25T13:32:07.949Z,25.2
2022-07-25T13:33:14.068Z,25.2
2022-07-25T13:34:20.199Z,25.1
2022-07-25T13:35:26.292Z,25.1
2022-07-25T13:36:32.413Z,25.1
2022-07-25T13:37:38.521Z,25.1
2022-07-25T13:38:44.650Z,25.1
2022-07-25T13:39:50.746Z,25
2022-07-25T13:40:55.889Z,25
2022-07-25T13:42:01.999Z,25
2022-07-25T13:43:08.104Z,25
2022-07-25T13:44:14.220Z,25
2022-07-25T13:45:20.343Z,25
2022-07-25T13:46:26.443Z,25
2022-07-25T13:47:32.570Z,25
2022-07-25T13:48:37.695Z,25
2022-07-25T13:49:42.823Z,25
2022-07-25T13:50:48.939Z,25
2022-07-25T13:51:55.081Z,25
2022-07-25T13:53:01.195Z,25
2022-07-25T13:54:07.287Z,25.1
2022-07-25T13:55:13.427Z,25
2022-07-25T13:56:19.514Z,25
2022-07-25T13:57:25.619Z,25
2022-07-25T13:58:31.734Z,25.1
2022-07-25T13:59:37.896Z,25.1
2022-07-25T14:00:43.966Z,25.1
2022-07-25T14:01:50.080Z,25.1
2022-07-25T14:02:56.203Z,25.1
2022-07-25T14:04:01.318Z,25.1
2022-07-25T14:05:07.431Z,25
2022-07-25T14:06:13.547Z,25.1
2022-07-25T14:07:19.669Z,25.1
2022-07-25T14:08:25.768Z,25.1
2022-07-25T14:09:31.878Z,25.1
2022-07-25T14:10:38.003Z,25.1
2022-07-25T14:11:43.142Z,25.1
2022-07-25T14:12:48.262Z,25.1
2022-07-25T14:13:54.380Z,25
2022-07-25T14:15:00.542Z,25
2022-07-25T14:16:06.612Z,25.1
2022-07-25T14:17:12.736Z,25.1
2022-07-25T14:19:24.955Z,25
2022-07-25T14:20:31.072Z,25.1
2022-07-25T14:21:37.187Z,25.1
2022-07-25T14:22:43.295Z,25.1
2022-07-25T14:23:49.420Z,25.1
2022-07-25T14:24:55.520Z,25.1
2022-07-25T14:26:01.952Z,25.1
2022-07-25T14:27:06.757Z,25.1
2022-07-25T14:28:12.873Z,25.1
2022-07-25T14:29:18.005Z,25.1
2022-07-25T14:30:24.130Z,25.1
2022-07-25T14:31:30.240Z,25.1
2022-07-25T14:32:36.359Z,25.1
2022-07-25T14:33:42.477Z,25.1
2022-07-25T14:34:48.587Z,25.1
2022-07-25T14:35:53.711Z,25.1
2022-07-25T14:36:58.843Z,25.1
2022-07-25T14:38:03.983Z,25.1
2022-07-25T14:39:09.124Z,25.1
2022-07-25T14:40:14.268Z,25.1
2022-07-25T14:41:19.392Z,25.1
2022-07-25T14:42:24.519Z,25.1
2022-07-25T14:43:29.656Z,25.1
2022-07-25T14:45:41.866Z,25.1
2022-07-25T14:46:47.987Z,25.1
2022-07-25T14:47:54.096Z,25.1
2022-07-25T14:49:00.221Z,25.1
2022-07-25T14:50:06.330Z,25.1
2022-07-25T14:51:12.444Z,25.1
2022-07-25T14:52:18.556Z,25.1
2022-07-25T14:53:24.668Z,25.1
2022-07-25T14:54:30.793Z,25.1
2022-07-25T14:55:36.902Z,25.1
2022-07-25T14:56:43.010Z,25.1